Beaver Falls, New York
Current Conditions -  °F | °C
As of 12:58 PM on Thursday 27 Nov 2014 (Local Time) from KGTB Reporting Station
Overcast Overcast  
Wind Chill: 22°   Ceiling: 2700
Heat Index: 27°   Visibility: 10mi
Dew Point: 22°   Wind: 5mph
Humidity: 79%   Direction: 360°N
Pressure: 30"   Gusts: NA
Location:  43.89°N, 75.43°W
Report Text: KGTB 271758Z AUTO 36004KT 10SM FEW015 OVC027 M03/M06 A3000 RMK AO2 SLP169 T10271058 11027 21040 57006
Loading
Personal Weather Stations






























Interactive Weather Map New forecast layout! Learn more

10-Day Weather Forecast

Advertisements
Track Severe Weather on mobile